Time;durP1;ratioP1;P1;durP2;ratioP2;P2;SDS_P1;SDS_P2;PMS_P1;PMS_P2;Temp;Humidity;BMP_temperature;BMP_pressure;BME280_temperature;BME280_humidity;BME280_pressure;Samples;Min_cycle;Max_cycle;Signal;HPM_P1;HPM_P2
2022/02/06 00:01:16;;;;;;;0.20;0.10;;;;;;;6.29;98.59;100589.13;5024262;28;20491;-54
2022/02/06 00:03:42;;;;;;;0.20;0.10;;;;;;;6.31;99.43;100597.94;5020891;28;21019;-54
2022/02/06 00:06:09;;;;;;;0.20;0.13;;;;;;;6.29;99.40;100588.25;5023078;28;20794;-53
2022/02/06 00:08:38;;;;;;;0.20;0.10;;;;;;;6.28;99.71;100583.84;5009726;28;20568;-53
2022/02/06 00:11:06;;;;;;;0.20;0.10;;;;;;;6.30;98.72;100584.72;5025999;28;20510;-53
2022/02/06 00:13:33;;;;;;;0.20;0.10;;;;;;;6.37;98.08;100589.97;5019955;28;20447;-54
2022/02/06 00:16:00;;;;;;;0.20;0.17;;;;;;;6.41;98.20;100580.25;5022977;28;20499;-54
2022/02/06 00:18:26;;;;;;;0.20;0.10;;;;;;;6.22;99.47;100580.38;5028658;28;20889;-53
2022/02/06 00:20:57;;;;;;;0.20;0.10;;;;;;;6.33;99.16;100575.03;5025887;28;20474;-53
2022/02/06 00:23:27;;;;;;;0.20;0.10;;;;;;;6.33;98.84;100574.16;5020424;28;20542;-54
2022/02/06 00:26:09;;;;;;;0.20;0.13;;;;;;;6.38;98.71;100572.34;5021177;28;20539;-53
2022/02/06 00:28:58;;;;;;;0.20;0.10;;;;;;;6.35;98.61;100567.09;5001737;28;20472;-54
2022/02/06 00:31:46;;;;;;;0.20;0.10;;;;;;;6.35;99.20;100557.41;5026885;28;20487;-54
2022/02/06 00:39:15;;;;;;;0.20;0.10;;;;;;;6.27;99.32;100545.13;5026983;28;20480;-54
2022/02/06 00:41:41;;;;;;;0.20;0.10;;;;;;;6.38;99.67;100543.31;5023709;28;20483;-53
2022/02/06 00:44:09;;;;;;;0.20;0.10;;;;;;;6.31;99.53;100542.50;5019961;28;20488;-54
2022/02/06 00:46:38;;;;;;;0.20;0.10;;;;;;;6.28;99.41;100533.69;5028522;28;20542;-54
2022/02/06 00:49:14;;;;;;;0.20;0.10;;;;;;;6.33;100.00;100521.34;5029008;28;20547;-54
2022/02/06 00:54:11;;;;;;;0.20;0.10;;;;;;;6.40;98.83;100494.88;5026417;28;20483;-54
2022/02/06 00:56:39;;;;;;;0.20;0.10;;;;;;;6.35;99.27;100493.19;5026111;28;20451;-54
2022/02/06 00:59:06;;;;;;;0.20;0.20;;;;;;;6.37;98.67;100497.56;5019783;28;20492;-54
2022/02/06 01:01:32;;;;;;;0.20;0.10;;;;;;;6.32;99.56;100493.22;5020302;28;20839;-54
2022/02/06 01:04:00;;;;;;;0.20;0.10;;;;;;;6.41;99.78;100490.47;5020323;28;20509;-54
2022/02/06 01:06:27;;;;;;;0.20;0.10;;;;;;;6.42;99.33;100482.53;5007712;28;20489;-54
2022/02/06 01:08:54;;;;;;;0.20;0.10;;;;;;;6.49;99.47;100468.41;5025772;28;20479;-54
2022/02/06 01:11:20;;;;;;;0.20;0.17;;;;;;;6.51;98.79;100479.81;5026566;28;20479;-54
2022/02/06 01:16:28;;;;;;;0.20;0.10;;;;;;;6.58;99.01;100479.75;5021766;28;20479;-54
2022/02/06 01:19:45;;;;;;;0.20;0.10;;;;;;;6.59;99.34;100474.50;5017127;28;20571;-54
2022/02/06 01:24:41;;;;;;;0.20;0.10;;;;;;;6.40;100.00;100459.69;5017192;28;20503;-54
2022/02/06 01:27:12;;;;;;;0.20;0.10;;;;;;;6.41;99.57;100464.94;5011426;28;20551;-54
2022/02/06 01:32:11;;;;;;;0.20;0.20;;;;;;;6.39;100.00;100455.28;5023931;28;20494;-54
2022/02/06 01:42:43;;;;;;;0.20;0.20;;;;;;;6.49;100.00;100447.28;5020976;28;21018;-54
2022/02/06 02:04:17;;;;;;;0.20;0.10;;;;;;;6.48;100.00;100418.25;5008376;28;20483;-53
2022/02/06 02:06:51;;;;;;;0.20;0.10;;;;;;;6.45;100.00;100402.44;5018663;28;20515;-53
2022/02/06 02:43:38;;;;;;;0.20;0.10;;;;;;;6.51;100.00;100326.69;5012751;28;20490;-53
2022/02/06 02:46:11;;;;;;;0.20;0.10;;;;;;;6.19;100.00;100286.56;5022079;28;20490;-54
2022/02/06 02:48:41;;;;;;;0.20;0.10;;;;;;;6.54;100.00;100312.56;5023120;28;20490;-54
2022/02/06 02:51:10;;;;;;;0.20;0.10;;;;;;;6.47;100.00;100313.53;5020935;28;20865;-54
2022/02/06 02:53:42;;;;;;;0.20;0.10;;;;;;;6.52;100.00;100315.22;5023539;28;20535;-54
2022/02/06 02:56:28;;;;;;;0.20;0.10;;;;;;;6.50;100.00;100331.97;5018221;28;20458;-54
2022/02/06 03:01:56;;;;;;;0.20;0.10;;;;;;;6.42;100.00;100303.00;5022397;28;20488;-55
2022/02/06 03:04:23;;;;;;;0.20;0.10;;;;;;;6.49;100.00;100282.69;5026003;28;20483;-54
2022/02/06 03:06:50;;;;;;;0.37;0.37;;;;;;;6.51;100.00;100281.78;5028503;28;20543;-54
2022/02/06 03:09:18;;;;;;;0.20;0.20;;;;;;;6.47;100.00;100264.25;5025399;28;20471;-54
2022/02/06 03:11:45;;;;;;;0.20;0.10;;;;;;;6.60;100.00;100264.09;5010993;28;20491;-54
2022/02/06 03:14:23;;;;;;;0.20;0.10;;;;;;;6.58;100.00;100265.84;5024406;28;20448;-54
2022/02/06 03:17:01;;;;;;;0.20;0.10;;;;;;;6.55;100.00;100269.41;5030270;28;20550;-54
2022/02/06 03:19:29;;;;;;;0.20;0.10;;;;;;;6.54;100.00;100257.09;5021483;28;20492;-54
2022/02/06 03:21:57;;;;;;;0.20;0.10;;;;;;;6.55;100.00;100261.50;5027623;28;20531;-54
2022/02/06 03:24:26;;;;;;;0.20;0.20;;;;;;;6.64;100.00;100261.38;5028131;28;20447;-54
2022/02/06 03:26:55;;;;;;;0.20;0.10;;;;;;;6.56;100.00;100257.94;5017376;28;20508;-54
2022/02/06 03:29:23;;;;;;;0.20;0.17;;;;;;;6.47;100.00;100260.72;5025751;28;20881;-54
2022/02/06 03:31:51;;;;;;;0.20;0.10;;;;;;;6.51;100.00;100270.34;5034728;28;20490;-54
2022/02/06 03:34:18;;;;;;;0.20;0.10;;;;;;;6.51;100.00;100273.88;5021273;28;20502;-54
2022/02/06 03:36:45;;;;;;;0.20;0.10;;;;;;;6.57;100.00;100264.97;5024992;28;20543;-54
2022/02/06 03:39:12;;;;;;;0.20;0.10;;;;;;;6.46;100.00;100270.41;5016731;28;20511;-54
2022/02/06 03:45:03;;;;;;;0.20;0.10;;;;;;;6.48;100.00;100259.84;5020484;28;20531;-54
2022/02/06 03:47:15;;;;;;;0.20;0.10;;;;;;;6.54;100.00;100257.97;5011701;28;21013;-54
2022/02/06 03:49:56;;;;;;;0.20;0.10;;;;;;;6.54;100.00;100255.34;5022926;28;20539;-55
2022/02/06 03:52:30;;;;;;;0.20;0.10;;;;;;;6.57;100.00;100249.13;5022494;28;20886;-54
2022/02/06 03:54:57;;;;;;;0.20;0.10;;;;;;;6.57;100.00;100257.06;5020764;28;20472;-54
2022/02/06 03:57:23;;;;;;;0.30;0.20;;;;;;;6.59;100.00;100257.06;5019755;28;20509;-57
2022/02/06 03:59:50;;;;;;;0.20;0.10;;;;;;;6.60;100.00;100250.88;5018790;28;20485;-54
2022/02/06 04:02:17;;;;;;;0.20;0.20;;;;;;;6.62;100.00;100235.91;5026083;28;21013;-55
2022/02/06 04:04:43;;;;;;;0.20;0.10;;;;;;;6.66;100.00;100230.53;5017368;28;20485;-54
2022/02/06 04:07:12;;;;;;;0.20;0.10;;;;;;;6.67;100.00;100224.34;5022230;28;20508;-54
2022/02/06 04:09:48;;;;;;;0.20;0.20;;;;;;;6.68;100.00;100225.22;4997931;28;20477;-54
2022/02/06 04:12:17;;;;;;;0.20;0.10;;;;;;;6.68;100.00;100223.47;5024986;28;20523;-54
2022/02/06 04:17:24;;;;;;;0.20;0.10;;;;;;;6.76;100.00;100231.28;5024752;28;20495;-54
2022/02/06 04:19:53;;;;;;;0.20;0.10;;;;;;;6.72;100.00;100229.59;5019427;28;20523;-54
2022/02/06 04:22:21;;;;;;;0.20;0.10;;;;;;;6.73;100.00;100224.28;5015966;28;20877;-54
2022/02/06 04:24:49;;;;;;;0.20;0.20;;;;;;;6.76;100.00;100218.09;5007416;28;20483;-54
2022/02/06 04:27:17;;;;;;;0.20;0.10;;;;;;;6.76;100.00;100212.81;5021625;28;20468;-53
2022/02/06 04:29:44;;;;;;;0.30;0.20;;;;;;;6.76;100.00;100212.81;5026724;28;20440;-54
2022/02/06 04:32:11;;;;;;;0.20;0.10;;;;;;;6.80;99.48;100210.09;5032820;28;20448;-53
2022/02/06 04:34:37;;;;;;;0.30;0.20;;;;;;;6.84;100.00;100214.41;5001654;28;20499;-54
2022/02/06 05:18:28;;;;;;;0.20;0.10;;;;;;;6.82;100.00;100158.09;5019192;28;20503;-54
2022/02/06 05:28:48;;;;;;;0.20;0.20;;;;;;;6.96;100.00;100143.78;5022569;28;20497;-54
2022/02/06 05:31:30;;;;;;;0.20;0.20;;;;;;;7.07;100.00;100133.94;5015645;28;20483;-54
2022/02/06 05:33:57;;;;;;;0.20;0.10;;;;;;;6.96;100.00;100126.16;5019481;28;20472;-54
2022/02/06 05:36:24;;;;;;;0.20;0.20;;;;;;;6.90;100.00;100126.28;5025315;28;20969;-54
2022/02/06 05:38:50;;;;;;;0.20;0.20;;;;;;;6.96;100.00;100120.88;5026160;28;20491;-54
2022/02/06 05:41:17;;;;;;;0.20;0.13;;;;;;;6.91;100.00;100127.16;5019302;28;20542;-54
2022/02/06 05:43:43;;;;;;;0.20;0.20;;;;;;;7.00;100.00;100130.53;5018814;28;20484;-54
2022/02/06 05:46:10;;;;;;;0.20;0.10;;;;;;;6.95;100.00;100131.47;5027619;28;20476;-54
2022/02/06 05:48:37;;;;;;;0.20;0.10;;;;;;;6.89;100.00;100129.81;5022926;28;20507;-54
2022/02/06 05:51:07;;;;;;;0.20;0.10;;;;;;;6.96;100.00;100117.38;5019613;28;20833;-54
2022/02/06 05:53:34;;;;;;;0.20;0.20;;;;;;;6.98;100.00;100105.88;5018787;28;20476;-54
2022/02/06 05:56:01;;;;;;;0.20;0.10;;;;;;;6.94;100.00;100108.59;5025110;28;20953;-54
2022/02/06 05:58:28;;;;;;;0.20;0.10;;;;;;;6.92;100.00;100124.50;5025477;28;20498;-54
2022/02/06 06:00:54;;;;;;;0.20;0.20;;;;;;;6.96;100.00;100115.59;5020189;28;20451;-54
2022/02/06 06:03:21;;;;;;;0.20;0.10;;;;;;;6.94;100.00;100112.13;5024089;28;20455;-54
2022/02/06 06:05:48;;;;;;;0.20;0.10;;;;;;;6.97;100.00;100111.19;5019879;28;20534;-54
2022/02/06 06:08:15;;;;;;;0.20;0.17;;;;;;;6.90;100.00;100097.22;5018528;28;20508;-55
2022/02/06 06:10:42;;;;;;;0.20;0.10;;;;;;;6.88;100.00;100090.22;5024779;28;20556;-53
2022/02/06 06:13:09;;;;;;;0.20;0.20;;;;;;;6.88;100.00;100096.38;5008731;28;20457;-54
2022/02/06 06:15:37;;;;;;;0.20;0.10;;;;;;;7.02;100.00;100099.66;5002643;28;20905;-54
2022/02/06 06:18:05;;;;;;;0.20;0.10;;;;;;;6.95;100.00;100086.56;5004904;28;20576;-54
2022/02/06 06:20:34;;;;;;;0.20;0.10;;;;;;;7.08;100.00;100099.53;5012258;28;20506;-54
2022/02/06 06:23:01;;;;;;;0.20;0.10;;;;;;;7.06;100.00;100066.13;5020539;28;20507;-54
2022/02/06 06:25:35;;;;;;;0.20;0.10;;;;;;;7.10;100.00;100070.44;5031423;28;20490;-54
2022/02/06 06:28:01;;;;;;;0.20;0.10;;;;;;;7.06;100.00;100066.13;5014284;28;20554;-54
2022/02/06 06:30:28;;;;;;;0.20;0.10;;;;;;;7.06;100.00;100060.84;5027723;28;20498;-54
2022/02/06 06:32:54;;;;;;;0.20;0.10;;;;;;;7.12;100.00;100061.56;5027642;28;20543;-54
2022/02/06 06:35:41;;;;;;;0.20;0.10;;;;;;;6.91;100.00;100079.59;5021899;28;20978;-54
2022/02/06 06:38:08;;;;;;;0.20;0.10;;;;;;;6.89;100.00;100065.56;5024219;28;20561;-54
2022/02/06 06:40:35;;;;;;;0.20;0.10;;;;;;;6.82;100.00;100063.00;5033134;28;20521;-54
2022/02/06 06:43:01;;;;;;;0.20;0.20;;;;;;;6.86;100.00;100045.34;5018315;28;20495;-54
2022/02/06 06:45:28;;;;;;;0.20;0.10;;;;;;;6.94;100.00;100050.47;5016115;28;20539;-54
2022/02/06 06:47:57;;;;;;;0.20;0.10;;;;;;;6.90;100.00;100047.03;5024626;28;20510;-54
2022/02/06 06:50:32;;;;;;;0.20;0.10;;;;;;;6.97;100.00;100042.50;5022229;28;20539;-54
2022/02/06 06:53:07;;;;;;;1.17;0.80;;;;;;;6.96;100.00;100038.97;5012518;28;20575;-54
2022/02/06 06:55:35;;;;;;;0.20;0.20;;;;;;;6.95;100.00;100036.38;5029753;28;20520;-54
2022/02/06 06:58:12;;;;;;;0.20;0.10;;;;;;;7.01;100.00;100025.69;5021642;28;20902;-54
2022/02/06 07:03:14;;;;;;;0.20;0.10;;;;;;;7.02;100.00;100001.03;5024028;28;20487;-54
2022/02/06 07:05:41;;;;;;;0.20;0.10;;;;;;;7.05;100.00;99999.19;5027746;28;20487;-54
2022/02/06 07:08:07;;;;;;;0.20;0.10;;;;;;;7.09;100.00;100002.63;5028983;28;20487;-54
2022/02/06 07:10:34;;;;;;;0.20;0.20;;;;;;;7.12;100.00;99995.50;5025176;28;20472;-54
2022/02/06 07:13:01;;;;;;;0.20;0.20;;;;;;;7.17;100.00;99999.84;5028211;28;20984;-54
2022/02/06 07:15:27;;;;;;;0.20;0.20;;;;;;;7.15;100.00;99991.09;5015690;28;20454;-54
2022/02/06 07:17:54;;;;;;;0.20;0.20;;;;;;;7.18;100.00;99993.66;5030092;28;20510;-56
2022/02/06 07:20:20;;;;;;;0.20;0.17;;;;;;;7.17;100.00;99982.22;5014898;28;20564;-55
2022/02/06 07:22:47;;;;;;;0.20;0.20;;;;;;;7.21;100.00;99973.31;5010547;28;20875;-55
2022/02/06 07:25:13;;;;;;;0.20;0.10;;;;;;;7.25;100.00;99984.69;5023186;28;20483;-55
2022/02/06 07:27:44;;;;;;;0.20;0.20;;;;;;;7.13;100.00;99964.69;5021229;28;20499;-55
2022/02/06 07:30:11;;;;;;;0.20;0.10;;;;;;;7.18;100.00;99949.59;5013259;28;20484;-55
2022/02/06 07:32:39;;;;;;;0.20;0.10;;;;;;;7.13;100.00;99969.97;5022037;28;20555;-56
2022/02/06 07:35:09;;;;;;;0.20;0.10;;;;;;;7.16;100.00;99961.97;5018919;28;20904;-55
2022/02/06 07:37:37;;;;;;;0.20;0.20;;;;;;;7.11;100.00;99964.69;5020076;28;21170;-55
2022/02/06 07:40:05;;;;;;;0.20;0.20;;;;;;;7.06;100.00;99963.94;5019259;28;20549;-55
2022/02/06 07:42:32;;;;;;;0.20;0.20;;;;;;;7.19;100.00;99964.56;5003651;28;20543;-56
2022/02/06 07:44:59;;;;;;;0.20;0.20;;;;;;;7.19;100.00;99968.97;5023590;28;20983;-55
2022/02/06 07:47:26;;;;;;;0.20;0.10;;;;;;;7.06;100.00;99969.22;5032046;28;20510;-55
2022/02/06 07:49:54;;;;;;;0.20;0.10;;;;;;;7.02;100.00;99975.47;5017533;28;20456;-55
2022/02/06 07:52:23;;;;;;;0.20;0.10;;;;;;;7.07;100.00;99975.38;5022216;28;20479;-55
2022/02/06 07:54:51;;;;;;;0.20;0.10;;;;;;;6.97;100.00;99972.03;5030726;28;21019;-55
2022/02/06 07:57:19;;;;;;;0.20;0.10;;;;;;;6.96;100.00;99959.72;5019565;28;20471;-55
2022/02/06 07:59:46;;;;;;;0.20;0.20;;;;;;;7.02;100.00;99961.38;5028800;28;20494;-55
2022/02/06 08:02:13;;;;;;;0.20;0.20;;;;;;;6.98;100.00;99954.41;5020721;28;20448;-55
2022/02/06 08:04:40;;;;;;;0.30;0.20;;;;;;;7.04;100.00;99949.88;5021691;28;20536;-55
2022/02/06 08:07:07;;;;;;;0.20;0.10;;;;;;;6.98;100.00;99954.41;5027446;28;20500;-55
2022/02/06 08:12:05;;;;;;;0.30;0.20;;;;;;;7.10;100.00;99938.31;5027202;28;20857;-55
2022/02/06 08:17:38;;;;;;;0.20;0.10;;;;;;;6.83;100.00;99937.94;5017208;28;20987;-55
2022/02/06 08:20:08;;;;;;;0.20;0.10;;;;;;;6.92;100.00;99936.03;5020245;28;20495;-55
2022/02/06 08:22:35;;;;;;;0.20;0.10;;;;;;;6.90;100.00;99941.34;5019384;28;20460;-55
2022/02/06 08:25:04;;;;;;;0.20;0.10;;;;;;;6.87;100.00;99929.97;5010647;28;20490;-55
2022/02/06 08:27:35;;;;;;;0.20;0.10;;;;;;;6.84;100.00;99926.47;5008362;28;21453;-55
2022/02/06 08:30:01;;;;;;;0.20;0.10;;;;;;;6.86;100.00;99933.53;5029570;28;20476;-55
2022/02/06 08:32:28;;;;;;;0.30;0.30;;;;;;;6.73;100.00;99922.31;5016761;28;20500;-55
2022/02/06 08:34:56;;;;;;;0.20;0.10;;;;;;;6.71;100.00;99922.31;5007497;28;20481;-55
2022/02/06 08:37:22;;;;;;;0.20;0.10;;;;;;;6.78;100.00;99907.25;5008371;28;20918;-55
2022/02/06 08:39:50;;;;;;;0.20;0.10;;;;;;;6.79;100.00;99912.50;5028487;28;20911;-55
2022/02/06 08:42:16;;;;;;;0.20;0.13;;;;;;;6.84;100.00;99900.06;5018494;28;20484;-55
2022/02/06 08:44:45;;;;;;;0.20;0.20;;;;;;;6.92;100.00;99892.00;5007040;28;20460;-55
2022/02/06 08:47:16;;;;;;;0.20;0.10;;;;;;;6.97;100.00;99886.59;5019671;28;20508;-55
2022/02/06 08:49:44;;;;;;;0.20;0.20;;;;;;;7.05;100.00;99876.75;5013895;28;20480;-55
2022/02/06 08:52:11;;;;;;;0.20;0.13;;;;;;;6.97;100.00;99865.47;5009952;28;20816;-55
2022/02/06 08:54:39;;;;;;;0.20;0.10;;;;;;;6.94;100.00;99863.75;5004568;28;20933;-55
2022/02/06 08:57:16;;;;;;;0.20;0.10;;;;;;;6.95;100.00;99852.28;5016221;28;20474;-55
2022/02/06 08:59:43;;;;;;;0.20;0.10;;;;;;;7.05;100.00;99864.41;5018607;28;20547;-55
2022/02/06 09:02:09;;;;;;;0.20;0.20;;;;;;;7.26;100.00;99849.84;5026953;28;20899;-55
2022/02/06 09:04:36;;;;;;;0.20;0.10;;;;;;;7.20;100.00;99834.13;5024696;28;20447;-55
2022/02/06 09:07:03;;;;;;;0.20;0.10;;;;;;;7.19;100.00;99829.75;5019850;28;20507;-55
2022/02/06 09:09:30;;;;;;;0.20;0.10;;;;;;;7.19;100.00;99821.81;5021428;28;20444;-56
2022/02/06 09:11:59;;;;;;;0.20;0.10;;;;;;;7.12;100.00;99821.06;5026607;28;20491;-55
2022/02/06 09:14:27;;;;;;;0.20;0.10;;;;;;;7.04;100.00;99808.97;5000625;28;20454;-55
2022/02/06 09:16:54;;;;;;;0.20;0.10;;;;;;;7.01;100.00;99804.63;5032096;28;20554;-55
2022/02/06 09:19:22;;;;;;;0.20;0.10;;;;;;;7.06;100.00;99801.84;5020129;28;20871;-55
2022/02/06 09:21:48;;;;;;;0.20;0.20;;;;;;;7.16;100.00;99805.19;5025311;28;20543;-55
2022/02/06 09:24:15;;;;;;;0.60;0.40;;;;;;;7.16;100.00;99795.47;5015522;28;20481;-56
2022/02/06 09:26:42;;;;;;;0.20;0.20;;;;;;;7.14;100.00;99792.00;5007192;28;21161;-55
2022/02/06 09:29:08;;;;;;;0.20;0.10;;;;;;;7.15;100.00;99788.44;5020191;28;20947;-55
2022/02/06 09:31:36;;;;;;;0.20;0.20;;;;;;;7.17;100.00;99780.47;5021957;28;20936;-55
2022/02/06 09:36:31;;;;;;;0.20;0.10;;;;;;;7.08;100.00;99774.50;5006632;28;20484;-55
2022/02/06 09:38:58;;;;;;;0.30;0.30;;;;;;;7.22;100.00;99765.38;5003282;28;20490;-55
2022/02/06 09:41:29;;;;;;;0.20;0.13;;;;;;;7.09;100.00;99768.31;5017550;28;20487;-55
2022/02/06 09:43:58;;;;;;;0.20;0.10;;;;;;;7.07;100.00;99758.69;5018584;28;20533;-56
2022/02/06 09:46:46;;;;;;;0.20;0.10;;;;;;;7.24;100.00;99759.13;5018035;28;20479;-55
2022/02/06 09:49:20;;;;;;;0.20;0.10;;;;;;;7.27;100.00;99758.22;5006403;28;20839;-55
2022/02/06 09:51:47;;;;;;;0.20;0.10;;;;;;;7.24;100.00;99745.94;5006590;28;20499;-55
2022/02/06 09:54:17;;;;;;;0.20;0.20;;;;;;;7.20;100.00;99749.56;5010256;28;20508;-55
2022/02/06 09:56:48;;;;;;;0.20;0.10;;;;;;;7.19;100.00;99746.94;5016893;28;20445;-55
2022/02/06 09:59:20;;;;;;;0.20;0.10;;;;;;;7.22;100.00;99745.09;5009864;28;20500;-55
2022/02/06 10:01:49;;;;;;;0.20;0.10;;;;;;;7.32;100.00;99735.19;5012846;28;20463;-55
2022/02/06 10:04:19;;;;;;;0.20;0.10;;;;;;;7.17;100.00;99744.34;5015494;28;20539;-55
2022/02/06 10:07:09;;;;;;;0.70;0.70;;;;;;;7.22;100.00;99749.53;5009276;28;20520;-55
2022/02/06 10:10:00;;;;;;;0.20;0.20;;;;;;;7.15;100.00;99727.66;5001435;28;20796;-55
2022/02/06 10:12:34;;;;;;;0.20;0.10;;;;;;;7.11;100.00;99731.25;5024985;28;20475;-55
2022/02/06 10:15:04;;;;;;;0.20;0.20;;;;;;;7.04;100.00;99724.41;5018783;28;20466;-55
2022/02/06 10:17:32;;;;;;;0.20;0.10;;;;;;;7.23;100.00;99725.69;5030320;28;20471;-56
2022/02/06 10:20:01;;;;;;;0.20;0.10;;;;;;;7.11;100.00;99728.63;5009423;28;21000;-55
2022/02/06 10:22:38;;;;;;;0.20;0.10;;;;;;;7.11;100.00;99718.91;5010217;28;21030;-55
2022/02/06 10:25:08;;;;;;;0.20;0.10;;;;;;;7.09;100.00;99710.16;5025801;28;20881;-55
2022/02/06 10:27:48;;;;;;;0.20;0.10;;;;;;;7.04;100.00;99709.41;5016806;28;20563;-55
2022/02/06 10:30:20;;;;;;;0.30;0.20;;;;;;;7.22;100.00;99694.88;5013262;28;21008;-55
2022/02/06 10:32:47;;;;;;;0.20;0.20;;;;;;;7.16;100.00;99705.63;5021510;28;20448;-55
2022/02/06 10:35:14;;;;;;;0.20;0.10;;;;;;;7.15;100.00;99679.22;5021199;28;20484;-55
2022/02/06 10:37:40;;;;;;;0.20;0.10;;;;;;;7.27;100.00;99674.50;5015998;28;20511;-55
2022/02/06 10:40:08;;;;;;;0.20;0.10;;;;;;;7.12;100.00;99648.44;5021018;28;20488;-54
2022/02/06 10:42:39;;;;;;;0.20;0.20;;;;;;;7.18;100.00;99639.50;5014885;28;20551;-55
2022/02/06 10:45:37;;;;;;;0.20;0.10;;;;;;;7.16;100.00;99652.75;5020427;28;20444;-57
2022/02/06 10:48:19;;;;;;;0.20;0.10;;;;;;;7.24;100.00;99629.63;5007026;28;20522;-55
2022/02/06 10:50:46;;;;;;;0.20;0.10;;;;;;;7.19;100.00;99631.53;5010821;28;21027;-55
2022/02/06 10:53:16;;;;;;;0.20;0.20;;;;;;;7.23;100.00;99613.81;5026240;28;21011;-55
2022/02/06 10:56:04;;;;;;;0.20;0.10;;;;;;;7.21;100.00;99613.84;5009352;28;20485;-55
2022/02/06 10:58:33;;;;;;;0.20;0.20;;;;;;;7.23;100.00;99590.88;5023335;28;20976;-55
2022/02/06 11:01:19;;;;;;;0.20;0.10;;;;;;;7.21;100.00;99595.34;5011156;28;21033;-56
2022/02/06 11:03:49;;;;;;;0.20;0.20;;;;;;;7.21;100.00;99592.72;5026884;28;20547;-55
2022/02/06 11:06:32;;;;;;;0.20;0.10;;;;;;;7.30;100.00;99588.97;5014123;28;20953;-55
2022/02/06 11:08:58;;;;;;;0.20;0.10;;;;;;;7.20;100.00;99585.69;5006530;28;20996;-55
2022/02/06 11:11:33;;;;;;;0.20;0.10;;;;;;;7.23;100.00;99585.59;5028779;28;20483;-55
2022/02/06 11:14:11;;;;;;;0.20;0.10;;;;;;;7.09;100.00;99566.59;5024246;28;20537;-55
2022/02/06 11:16:45;;;;;;;0.20;0.10;;;;;;;7.09;100.00;99553.38;5018711;28;21273;-55
2022/02/06 11:19:20;;;;;;;0.20;0.10;;;;;;;6.99;100.00;99538.69;5027022;28;20498;-55
2022/02/06 11:22:06;;;;;;;0.30;0.20;;;;;;;7.00;100.00;99543.09;5021465;28;20577;-55
2022/02/06 11:24:37;;;;;;;0.20;0.10;;;;;;;7.05;100.00;99536.75;5021723;28;20476;-55
2022/02/06 11:27:06;;;;;;;0.20;0.10;;;;;;;7.01;100.00;99518.41;5025299;28;21001;-55
2022/02/06 11:29:33;;;;;;;0.20;0.10;;;;;;;6.98;100.00;99515.81;5027484;28;20444;-55
2022/02/06 11:32:00;;;;;;;0.30;0.20;;;;;;;7.01;100.00;99513.09;5031793;28;20965;-55
2022/02/06 11:34:28;;;;;;;0.20;0.10;;;;;;;7.05;100.00;99498.91;5021557;28;20448;-55
2022/02/06 11:46:11;;;;;;;0.20;0.10;;;;;;;6.86;100.00;99469.47;5019927;28;20544;-55
2022/02/06 11:48:39;;;;;;;0.20;0.10;;;;;;;6.83;100.00;99461.59;5024099;28;20516;-56
2022/02/06 11:51:06;;;;;;;0.20;0.10;;;;;;;6.87;100.00;99449.22;5027742;28;20475;-55
2022/02/06 11:53:38;;;;;;;0.20;0.10;;;;;;;6.79;100.00;99447.63;5012774;28;20456;-55
2022/02/06 11:56:31;;;;;;;0.20;0.10;;;;;;;6.91;100.00;99435.00;5011287;28;20532;-55
2022/02/06 11:59:11;;;;;;;0.20;0.10;;;;;;;6.78;100.00;99423.91;5021002;28;20888;-55
2022/02/06 12:01:40;;;;;;;0.20;0.20;;;;;;;6.98;100.00;99412.78;5021208;28;20499;-55
2022/02/06 12:04:22;;;;;;;0.20;0.10;;;;;;;6.85;100.00;99404.31;5026599;28;20452;-55
2022/02/06 12:06:51;;;;;;;0.20;0.10;;;;;;;6.94;100.00;99390.00;5027994;28;21001;-57
2022/02/06 12:09:28;;;;;;;0.20;0.10;;;;;;;7.03;100.00;99372.13;5015698;28;20532;-57
2022/02/06 12:12:17;;;;;;;0.20;0.10;;;;;;;6.96;100.00;99369.69;5020358;28;20542;-56
2022/02/06 12:14:47;;;;;;;0.20;0.10;;;;;;;6.98;100.00;99367.84;5020411;28;20453;-57
2022/02/06 12:20:07;;;;;;;0.20;0.10;;;;;;;6.88;100.00;99358.50;5020120;28;20472;-56
2022/02/06 12:22:42;;;;;;;0.20;0.10;;;;;;;6.91;100.00;99327.56;5019936;28;20488;-56
2022/02/06 12:25:19;;;;;;;0.20;0.10;;;;;;;6.93;100.00;99330.16;5027199;28;20811;-56
2022/02/06 12:27:47;;;;;;;0.20;0.10;;;;;;;6.98;100.00;99337.03;5027057;28;20526;-57
2022/02/06 12:30:29;;;;;;;0.20;0.10;;;;;;;7.05;100.00;99335.09;5023084;28;20528;-56
2022/02/06 12:33:24;;;;;;;0.20;0.13;;;;;;;7.05;100.00;99341.22;5028838;28;20472;-57
2022/02/06 12:38:36;;;;;;;0.20;0.20;;;;;;;6.90;100.00;99311.75;5016147;28;20518;-57
2022/02/06 12:41:16;;;;;;;0.20;0.10;;;;;;;6.90;100.00;99311.75;5016743;28;20515;-57
2022/02/06 12:43:52;;;;;;;0.20;0.10;;;;;;;6.90;100.00;99294.13;5020152;28;20488;-58
2022/02/06 12:46:24;;;;;;;0.20;0.10;;;;;;;6.97;100.00;99284.22;5021465;28;20558;-57
2022/02/06 12:48:52;;;;;;;0.20;0.10;;;;;;;6.99;100.00;99277.13;5030913;28;20826;-57
2022/02/06 12:51:29;;;;;;;0.20;0.10;;;;;;;6.92;100.00;99275.59;5022217;28;20538;-56
2022/02/06 12:54:04;;;;;;;0.20;0.10;;;;;;;6.91;100.00;99263.31;5019874;28;20956;-57
2022/02/06 12:56:32;;;;;;;0.20;0.10;;;;;;;6.97;100.00;99252.53;5013715;28;20477;-57
2022/02/06 12:58:59;;;;;;;0.20;0.10;;;;;;;6.96;100.00;99264.00;5026458;28;20519;-57
2022/02/06 13:01:37;;;;;;;0.20;0.10;;;;;;;6.94;100.00;99263.19;5025241;28;20538;-57
2022/02/06 13:04:05;;;;;;;0.20;0.10;;;;;;;6.99;100.00;99230.47;5026112;28;20477;-56
2022/02/06 13:06:39;;;;;;;0.20;0.10;;;;;;;7.05;100.00;99224.97;5025872;28;20538;-57
2022/02/06 13:09:19;;;;;;;0.20;0.10;;;;;;;7.09;100.00;99229.25;5014190;28;20937;-57
2022/02/06 13:11:51;;;;;;;0.20;0.10;;;;;;;7.05;100.00;99226.75;5026409;28;20440;-57
2022/02/06 13:20:07;;;;;;;0.20;0.10;;;;;;;7.02;100.00;99211.88;5019300;28;20534;-57
2022/02/06 13:28:13;;;;;;;0.20;0.20;;;;;;;7.04;100.00;99177.47;5023276;28;20900;-57
2022/02/06 13:38:49;;;;;;;0.20;0.10;;;;;;;7.15;100.00;99132.22;5025148;28;20507;-56
2022/02/06 13:41:19;;;;;;;0.20;0.10;;;;;;;7.25;100.00;99142.41;5006537;28;20533;-57
2022/02/06 13:43:48;;;;;;;0.20;0.10;;;;;;;7.28;100.00;99139.69;5011613;28;20485;-57
2022/02/06 13:46:21;;;;;;;0.20;0.10;;;;;;;7.38;100.00;99116.41;5027941;28;20509;-57
2022/02/06 13:48:49;;;;;;;0.20;0.13;;;;;;;7.46;100.00;99105.59;5016631;28;20962;-57
2022/02/06 13:51:16;;;;;;;0.20;0.10;;;;;;;7.52;100.00;99092.13;5022934;28;20471;-57
2022/02/06 13:54:01;;;;;;;0.20;0.10;;;;;;;7.64;100.00;99112.84;5025558;28;20494;-57
2022/02/06 13:56:28;;;;;;;0.63;0.63;;;;;;;7.60;100.00;99100.66;5023207;28;20448;-57
2022/02/06 13:58:59;;;;;;;0.20;0.10;;;;;;;7.68;100.00;99106.56;5009961;28;20490;-56
2022/02/06 14:01:39;;;;;;;0.20;0.20;;;;;;;7.70;100.00;99081.78;5020382;28;21058;-57
2022/02/06 14:04:31;;;;;;;0.20;0.10;;;;;;;7.61;100.00;99103.25;5018175;28;20999;-58
2022/02/06 14:07:16;;;;;;;0.20;0.20;;;;;;;7.66;100.00;99084.56;5019184;28;20551;-57
2022/02/06 14:12:22;;;;;;;0.20;0.13;;;;;;;7.56;100.00;99078.78;5024984;28;20491;-57
2022/02/06 14:14:55;;;;;;;0.20;0.20;;;;;;;7.69;100.00;99081.84;5025903;28;20455;-57
2022/02/06 14:17:38;;;;;;;0.20;0.10;;;;;;;7.65;100.00;99074.91;5018502;28;20470;-57
2022/02/06 14:20:10;;;;;;;0.20;0.13;;;;;;;7.70;100.00;99065.06;5016722;28;20452;-57
2022/02/06 14:22:43;;;;;;;0.20;0.10;;;;;;;7.59;100.00;99059.28;5024637;28;20498;-58
2022/02/06 14:25:12;;;;;;;0.20;0.10;;;;;;;7.53;100.00;99072.72;5025679;28;20494;-58
2022/02/06 14:27:41;;;;;;;0.20;0.20;;;;;;;7.52;100.00;99063.91;5017400;28;20521;-57
2022/02/06 14:30:18;;;;;;;0.20;0.10;;;;;;;7.45;100.00;99054.50;5021963;28;20540;-57
2022/02/06 14:32:58;;;;;;;0.20;0.20;;;;;;;7.46;100.00;99077.38;5012469;28;20508;-57
2022/02/06 14:35:47;;;;;;;0.20;0.10;;;;;;;7.38;100.00;99061.75;5028038;28;20447;-57
2022/02/06 14:43:43;;;;;;;0.20;0.10;;;;;;;7.38;100.00;99050.34;5022457;28;20452;-57
2022/02/06 14:46:10;;;;;;;0.20;0.10;;;;;;;7.46;100.00;99048.28;5031692;28;20456;-57
2022/02/06 14:48:38;;;;;;;0.20;0.10;;;;;;;7.36;100.00;99053.03;5016851;28;20559;-58
2022/02/06 14:51:08;;;;;;;0.20;0.13;;;;;;;7.43;100.00;99049.25;5016423;28;20959;-58
2022/02/06 14:53:38;;;;;;;0.20;0.10;;;;;;;7.46;100.00;99036.84;5021496;28;20495;-57
2022/02/06 14:56:12;;;;;;;0.20;0.10;;;;;;;7.42;100.00;99030.81;5024142;28;20527;-58